Queen Victoria — ZCEF3 — position and weather

sailwx.info

Track history (hours):
 
Tides and Currents Weather Stations Pressure Air Temp Water Temp Dewpoint Dewpoint Depression Visibility Wind Speed Wind Dir Waves Ship Positions

Queen Victoria

Last reported at 2017-Jul-22 18:29 UTC. Time now 2017-Jul-22 18:33 UTC.
Position N 37°56' E 023°37'.

Length 294 m; draft 8 m.

Type: Passenger vessel. MMSI: 310624000.

Date/timePositionNaut miles runAvg speedWind from/ knotsBaromVisibWave heightAir tempDewpointWater temp
2017-Jul-22 18:29N 37°56' E 023°37'0 0.0
2017-Jul-22 17:59N 37°56' E 023°37'0 0.0
2017-Jul-22 17:29N 37°56' E 023°37'0 0.0
2017-Jul-22 16:59N 37°56' E 023°37'0 0.0
2017-Jul-22 16:29N 37°56' E 023°37'0 0.0
2017-Jul-22 15:59N 37°56' E 023°37'0 0.0
2017-Jul-22 15:29N 37°56' E 023°37'0 0.0
2017-Jul-22 14:59N 37°56' E 023°37'0 0.0
2017-Jul-22 13:59N 37°56' E 023°37'0 0.0
2017-Jul-22 13:29N 37°56' E 023°37'0 0.0
2017-Jul-22 12:59N 37°56' E 023°37'0 0.0
2017-Jul-22 12:29N 37°56' E 023°37'0 0.0
2017-Jul-22 11:59N 37°56' E 023°37'0 0.0
2017-Jul-22 11:29N 37°56' E 023°37'0 0.0
2017-Jul-22 10:59N 37°56' E 023°37'0 0.0
2017-Jul-22 10:29N 37°56' E 023°37'0 0.0
2017-Jul-22 09:59N 37°56' E 023°37'0 0.0
2017-Jul-22 09:29N 37°56' E 023°37'0 0.0
2017-Jul-22 08:59N 37°56' E 023°37'0 0.0
2017-Jul-22 08:29N 37°56' E 023°37'0 0.0
2017-Jul-22 07:59N 37°56' E 023°37'0 0.0
2017-Jul-22 07:29N 37°56' E 023°37'0 0.0
2017-Jul-22 06:59N 37°56' E 023°37'0 0.0
2017-Jul-22 06:29N 37°56' E 023°37'0 0.0
2017-Jul-22 05:59N 37°56' E 023°37'0 0.0
2017-Jul-22 05:29N 37°56' E 023°37'0 0.0
2017-Jul-22 04:59N 37°56' E 023°37'0 0.0
2017-Jul-22 04:29N 37°56' E 023°37'0 0.0
2017-Jul-22 03:59N 37°56' E 023°37'0 0.0
2017-Jul-22 03:29N 37°56' E 023°37'0 0.0
2017-Jul-22 02:59N 37°56' E 023°37'0 0.0
2017-Jul-22 02:29N 37°56' E 023°37'0 0.1
2017-Jul-22 02:00N 37°56' E 023°37'1 2.4
2017-Jul-22 01:30N 37°55' E 023°36'2 4.5
2017-Jul-22 01:01N 37°53' E 023°38'816.3
2017-Jul-22 00:30N 37°46' E 023°42'816.5
2017-Jul-22 00:00N 37°38' E 023°45'714.5
2017-Jul-21 23:30N 37°31' E 023°47'612.3
2017-Jul-21 23:00N 37°25' E 023°45'612.4
2017-Jul-21 22:31N 37°19' E 023°44'612.7
2017-Jul-21 22:00N 37°13' E 023°39'712.9
2017-Jul-21 21:30N 37°07' E 023°36'2912.2
2017-Jul-21 19:08N 36°40' E 023°24'1714.8
2017-Jul-21 18:00N 36°24' E 023°18'18410.2 040 / 21012.2 5.4 26.517.926.0
2017-Jul-21 00:00N 38°06' E 020°06'4717.0 020 / 91012.010.8 24.022.126.0
2017-Jul-20 21:14N 38°52' E 020°18'416.1
2017-Jul-20 21:00N 38°48' E 020°18'8123.5 330 / 51012.710.8 25.021.226.0
2017-Jul-20 20:56N 38°56' E 020°19'17 0.9
2017-Jul-20 01:00N 39°12' E 020°12'45 9.6 090 / 91012.110.8 23.220.226.0
2017-Jul-19 20:21N 38°27' E 020°11'410.9
2017-Jul-19 20:00N 38°24' E 020°11'610.9
2017-Jul-19 19:30N 38°18' E 020°10'610.9
2017-Jul-19 18:58N 38°12' E 020°10'511.0
2017-Jul-19 18:30N 38°07' E 020°09'13 8.8
2017-Jul-19 17:00N 37°54' E 020°12'9111.4 350 / 231015.4 5.4 25.020.427.0
2017-Jul-19 09:00N 36°36' E 021°12'124 8.8 010 / 121017.410.8 25.017.027.0
2017-Jul-18 19:00N 35°42' E 023°30'93 4.6 040 / 221017.1 5.4 23.219.025.0
2017-Jul-17 23:00N 35°36' E 025°24'6115.3 020 / 251011.210.8 23.519.626.0
2017-Jul-17 19:00N 35°54' E 026°36'95 3.8 340 / 151011.1 5.4 23.519.626.0
2017-Jul-16 17:41N 37°23' E 025°55'213.2
2017-Jul-16 17:30N 37°25' E 025°53'713.3
2017-Jul-16 16:59N 37°28' E 025°45'613.1
2017-Jul-16 16:30N 37°30' E 025°38'713.6
2017-Jul-16 16:00N 37°32' E 025°29'713.8
2017-Jul-16 15:30N 37°33' E 025°21'511.0
2017-Jul-16 15:00N 37°28' E 025°17'2 3.1
2017-Jul-16 14:27N 37°28' E 025°19'0 0.0
2017-Jul-16 13:57N 37°28' E 025°19'0 0.0
2017-Jul-16 13:30N 37°28' E 025°19'0 0.0
2017-Jul-16 13:00N 37°28' E 025°19'0 0.0
2017-Jul-16 12:30N 37°28' E 025°19'0 0.0
2017-Jul-16 11:57N 37°28' E 025°19'0 0.0
2017-Jul-16 11:30N 37°28' E 025°19'0 0.0
2017-Jul-16 10:57N 37°28' E 025°19'0 0.0
2017-Jul-16 10:24N 37°28' E 025°19'0 0.0
2017-Jul-16 10:00N 37°28' E 025°19'0 0.0
2017-Jul-16 09:27N 37°28' E 025°19'0 0.0
2017-Jul-16 09:00N 37°28' E 025°19'0 0.0
2017-Jul-16 08:27N 37°28' E 025°19'0 0.0
2017-Jul-16 08:00N 37°28' E 025°19'0 0.0
2017-Jul-16 07:30N 37°28' E 025°19'0 0.0
2017-Jul-16 07:00N 37°28' E 025°19'0 0.0
2017-Jul-16 06:30N 37°28' E 025°19'0 0.0
2017-Jul-16 05:57N 37°28' E 025°19'0 0.0
2017-Jul-16 05:30N 37°28' E 025°19'0 0.0
2017-Jul-16 05:00N 37°28' E 025°19'0 0.0
2017-Jul-16 04:30N 37°28' E 025°19'0 0.0
2017-Jul-16 03:50N 37°28' E 025°19'0 0.5
2017-Jul-16 03:30N 37°28' E 025°19'4 7.3
2017-Jul-16 03:00N 37°28' E 025°15'713.5
2017-Jul-16 02:31N 37°30' E 025°07'714.6
2017-Jul-16 02:00N 37°32' E 024°58'714.4
2017-Jul-16 01:31N 37°33' E 024°49'4412.8
2017-Jul-15 22:06N 37°32' E 023°54'114.8
2017-Jul-15 22:00N 37°33' E 023°52'714.1
2017-Jul-15 21:30N 37°37' E 023°45'714.3
2017-Jul-15 21:01N 37°43' E 023°40'714.2
2017-Jul-15 20:31N 37°50' E 023°37'713.0
2017-Jul-15 20:00N 37°56' E 023°37'1 1.2
2017-Jul-15 19:29N 37°56' E 023°38'0 0.0
2017-Jul-15 18:59N 37°56' E 023°38'0 0.0
2017-Jul-15 18:29N 37°56' E 023°38'0 0.0
2017-Jul-15 17:59N 37°56' E 023°38'0 0.0
2017-Jul-15 17:29N 37°56' E 023°38'0 0.0
2017-Jul-15 16:59N 37°56' E 023°38'0 0.0
2017-Jul-15 16:29N 37°56' E 023°38'0 0.0
2017-Jul-15 15:59N 37°56' E 023°38'0 0.0
2017-Jul-15 15:29N 37°56' E 023°38'0 0.0
2017-Jul-15 14:56N 37°56' E 023°38'0 0.0
2017-Jul-15 13:59N 37°56' E 023°38'0 0.0
2017-Jul-15 13:29N 37°56' E 023°38'0 0.0
2017-Jul-15 12:59N 37°56' E 023°38'0 0.0
2017-Jul-15 12:29N 37°56' E 023°38'0 0.0
2017-Jul-15 11:59N 37°56' E 023°38'0 0.0
2017-Jul-15 11:29N 37°56' E 023°38'0 0.0
2017-Jul-15 10:59N 37°56' E 023°38'0 0.0
2017-Jul-15 10:29N 37°56' E 023°38'0 0.0
2017-Jul-15 09:59N 37°56' E 023°38'0 0.0
2017-Jul-15 09:29N 37°56' E 023°38'0 0.0
2017-Jul-15 08:59N 37°56' E 023°38'0 0.0
2017-Jul-15 08:29N 37°56' E 023°38'0 0.0
2017-Jul-15 07:59N 37°56' E 023°38'0 0.0
2017-Jul-15 07:29N 37°56' E 023°38'0 0.0
2017-Jul-15 06:59N 37°56' E 023°38'0 0.0
2017-Jul-15 06:29N 37°56' E 023°38'0 0.0
2017-Jul-15 05:59N 37°56' E 023°38'0 0.0
2017-Jul-15 05:29N 37°56' E 023°38'0 0.0
2017-Jul-15 04:59N 37°56' E 023°38'0 0.0
2017-Jul-15 04:29N 37°56' E 023°38'0 0.0
2017-Jul-15 03:59N 37°56' E 023°38'0 0.0
2017-Jul-15 03:29N 37°56' E 023°38'0 0.0
2017-Jul-15 02:56N 37°56' E 023°38'0 0.0
2017-Jul-15 02:29N 37°56' E 023°38'0 0.7
2017-Jul-15 02:00N 37°56' E 023°37'1 2.3
2017-Jul-15 01:30N 37°55' E 023°37'713.4
2017-Jul-15 01:00N 37°49' E 023°40'917.3
2017-Jul-15 00:30N 37°41' E 023°45'917.0
2017-Jul-15 00:00N 37°33' E 023°49'917.1
2017-Jul-14 23:30N 37°25' E 023°53'188 4.2
2017-Jul-13 02:18N 36°28' E 020°08'  
Track history (hours):
 
Tides and Currents Weather Stations Pressure Air Temp Water Temp Dewpoint Dewpoint Depression Visibility Wind Speed Wind Dir Waves Ship Positions

Queen Victoria

Last reported at 2017-Jul-22 18:29 UTC. Time now 2017-Jul-22 18:33 UTC.
Position N 37°56' E 023°37'.

Length 294 m; draft 8 m.

Type: Passenger vessel. MMSI: 310624000.

Date/timePositionNaut miles runAvg speedWind from/ knotsBaromVisibWave heightAir tempDewpointWater temp
2017-Jul-22 18:29N 37°56' E 023°37'0 0.0
2017-Jul-22 17:59N 37°56' E 023°37'0 0.0
2017-Jul-22 17:29N 37°56' E 023°37'0 0.0
2017-Jul-22 16:59N 37°56' E 023°37'0 0.0
2017-Jul-22 16:29N 37°56' E 023°37'0 0.0
2017-Jul-22 15:59N 37°56' E 023°37'0 0.0
2017-Jul-22 15:29N 37°56' E 023°37'0 0.0
2017-Jul-22 14:59N 37°56' E 023°37'0 0.0
2017-Jul-22 13:59N 37°56' E 023°37'0 0.0
2017-Jul-22 13:29N 37°56' E 023°37'0 0.0
2017-Jul-22 12:59N 37°56' E 023°37'0 0.0
2017-Jul-22 12:29N 37°56' E 023°37'0 0.0
2017-Jul-22 11:59N 37°56' E 023°37'0 0.0
2017-Jul-22 11:29N 37°56' E 023°37'0 0.0
2017-Jul-22 10:59N 37°56' E 023°37'0 0.0
2017-Jul-22 10:29N 37°56' E 023°37'0 0.0
2017-Jul-22 09:59N 37°56' E 023°37'0 0.0
2017-Jul-22 09:29N 37°56' E 023°37'0 0.0
2017-Jul-22 08:59N 37°56' E 023°37'0 0.0
2017-Jul-22 08:29N 37°56' E 023°37'0 0.0
2017-Jul-22 07:59N 37°56' E 023°37'0 0.0
2017-Jul-22 07:29N 37°56' E 023°37'0 0.0
2017-Jul-22 06:59N 37°56' E 023°37'0 0.0
2017-Jul-22 06:29N 37°56' E 023°37'0 0.0
2017-Jul-22 05:59N 37°56' E 023°37'0 0.0
2017-Jul-22 05:29N 37°56' E 023°37'0 0.0
2017-Jul-22 04:59N 37°56' E 023°37'0 0.0
2017-Jul-22 04:29N 37°56' E 023°37'0 0.0
2017-Jul-22 03:59N 37°56' E 023°37'0 0.0
2017-Jul-22 03:29N 37°56' E 023°37'0 0.0
2017-Jul-22 02:59N 37°56' E 023°37'0 0.0
2017-Jul-22 02:29N 37°56' E 023°37'0 0.1
2017-Jul-22 02:00N 37°56' E 023°37'1 2.4
2017-Jul-22 01:30N 37°55' E 023°36'2 4.5
2017-Jul-22 01:01N 37°53' E 023°38'816.3
2017-Jul-22 00:30N 37°46' E 023°42'816.5
2017-Jul-22 00:00N 37°38' E 023°45'714.5
2017-Jul-21 23:30N 37°31' E 023°47'612.3
2017-Jul-21 23:00N 37°25' E 023°45'612.4
2017-Jul-21 22:31N 37°19' E 023°44'612.7
2017-Jul-21 22:00N 37°13' E 023°39'712.9
2017-Jul-21 21:30N 37°07' E 023°36'2912.2
2017-Jul-21 19:08N 36°40' E 023°24'1714.8
2017-Jul-21 18:00N 36°24' E 023°18'18410.2 040 / 21012.2 5.4 26.517.926.0
2017-Jul-21 00:00N 38°06' E 020°06'4717.0 020 / 91012.010.8 24.022.126.0
2017-Jul-20 21:14N 38°52' E 020°18'416.1
2017-Jul-20 21:00N 38°48' E 020°18'8123.5 330 / 51012.710.8 25.021.226.0
2017-Jul-20 20:56N 38°56' E 020°19'17 0.9
2017-Jul-20 01:00N 39°12' E 020°12'45 9.6 090 / 91012.110.8 23.220.226.0
2017-Jul-19 20:21N 38°27' E 020°11'410.9
2017-Jul-19 20:00N 38°24' E 020°11'610.9
2017-Jul-19 19:30N 38°18' E 020°10'610.9
2017-Jul-19 18:58N 38°12' E 020°10'511.0
2017-Jul-19 18:30N 38°07' E 020°09'13 8.8
2017-Jul-19 17:00N 37°54' E 020°12'9111.4 350 / 231015.4 5.4 25.020.427.0
2017-Jul-19 09:00N 36°36' E 021°12'124 8.8 010 / 121017.410.8 25.017.027.0
2017-Jul-18 19:00N 35°42' E 023°30'93 4.6 040 / 221017.1 5.4 23.219.025.0
2017-Jul-17 23:00N 35°36' E 025°24'6115.3 020 / 251011.210.8 23.519.626.0
2017-Jul-17 19:00N 35°54' E 026°36'95 3.8 340 / 151011.1 5.4 23.519.626.0
2017-Jul-16 17:41N 37°23' E 025°55'213.2
2017-Jul-16 17:30N 37°25' E 025°53'713.3
2017-Jul-16 16:59N 37°28' E 025°45'613.1
2017-Jul-16 16:30N 37°30' E 025°38'713.6
2017-Jul-16 16:00N 37°32' E 025°29'713.8
2017-Jul-16 15:30N 37°33' E 025°21'511.0
2017-Jul-16 15:00N 37°28' E 025°17'2 3.1
2017-Jul-16 14:27N 37°28' E 025°19'0 0.0
2017-Jul-16 13:57N 37°28' E 025°19'0 0.0
2017-Jul-16 13:30N 37°28' E 025°19'0 0.0
2017-Jul-16 13:00N 37°28' E 025°19'0 0.0
2017-Jul-16 12:30N 37°28' E 025°19'0 0.0
2017-Jul-16 11:57N 37°28' E 025°19'0 0.0
2017-Jul-16 11:30N 37°28' E 025°19'0 0.0
2017-Jul-16 10:57N 37°28' E 025°19'0 0.0
2017-Jul-16 10:24N 37°28' E 025°19'0 0.0
2017-Jul-16 10:00N 37°28' E 025°19'0 0.0
2017-Jul-16 09:27N 37°28' E 025°19'0 0.0
2017-Jul-16 09:00N 37°28' E 025°19'0 0.0
2017-Jul-16 08:27N 37°28' E 025°19'0 0.0
2017-Jul-16 08:00N 37°28' E 025°19'0 0.0
2017-Jul-16 07:30N 37°28' E 025°19'0 0.0
2017-Jul-16 07:00N 37°28' E 025°19'0 0.0
2017-Jul-16 06:30N 37°28' E 025°19'0 0.0
2017-Jul-16 05:57N 37°28' E 025°19'0 0.0
2017-Jul-16 05:30N 37°28' E 025°19'0 0.0
2017-Jul-16 05:00N 37°28' E 025°19'0 0.0
2017-Jul-16 04:30N 37°28' E 025°19'0 0.0
2017-Jul-16 03:50N 37°28' E 025°19'0 0.5
2017-Jul-16 03:30N 37°28' E 025°19'4 7.3
2017-Jul-16 03:00N 37°28' E 025°15'713.5
2017-Jul-16 02:31N 37°30' E 025°07'714.6
2017-Jul-16 02:00N 37°32' E 024°58'714.4
2017-Jul-16 01:31N 37°33' E 024°49'4412.8
2017-Jul-15 22:06N 37°32' E 023°54'114.8
2017-Jul-15 22:00N 37°33' E 023°52'714.1
2017-Jul-15 21:30N 37°37' E 023°45'714.3
2017-Jul-15 21:01N 37°43' E 023°40'714.2
2017-Jul-15 20:31N 37°50' E 023°37'713.0
2017-Jul-15 20:00N 37°56' E 023°37'1 1.2
2017-Jul-15 19:29N 37°56' E 023°38'0 0.0
2017-Jul-15 18:59N 37°56' E 023°38'0 0.0
2017-Jul-15 18:29N 37°56' E 023°38'0 0.0
2017-Jul-15 17:59N 37°56' E 023°38'0 0.0
2017-Jul-15 17:29N 37°56' E 023°38'0 0.0
2017-Jul-15 16:59N 37°56' E 023°38'0 0.0
2017-Jul-15 16:29N 37°56' E 023°38'0 0.0
2017-Jul-15 15:59N 37°56' E 023°38'0 0.0
2017-Jul-15 15:29N 37°56' E 023°38'0 0.0
2017-Jul-15 14:56N 37°56' E 023°38'0 0.0
2017-Jul-15 13:59N 37°56' E 023°38'0 0.0
2017-Jul-15 13:29N 37°56' E 023°38'0 0.0
2017-Jul-15 12:59N 37°56' E 023°38'0 0.0
2017-Jul-15 12:29N 37°56' E 023°38'0 0.0
2017-Jul-15 11:59N 37°56' E 023°38'0 0.0
2017-Jul-15 11:29N 37°56' E 023°38'0 0.0
2017-Jul-15 10:59N 37°56' E 023°38'0 0.0
2017-Jul-15 10:29N 37°56' E 023°38'0 0.0
2017-Jul-15 09:59N 37°56' E 023°38'0 0.0
2017-Jul-15 09:29N 37°56' E 023°38'0 0.0
2017-Jul-15 08:59N 37°56' E 023°38'0 0.0
2017-Jul-15 08:29N 37°56' E 023°38'0 0.0
2017-Jul-15 07:59N 37°56' E 023°38'0 0.0
2017-Jul-15 07:29N 37°56' E 023°38'0 0.0
2017-Jul-15 06:59N 37°56' E 023°38'0 0.0
2017-Jul-15 06:29N 37°56' E 023°38'0 0.0
2017-Jul-15 05:59N 37°56' E 023°38'0 0.0
2017-Jul-15 05:29N 37°56' E 023°38'0 0.0
2017-Jul-15 04:59N 37°56' E 023°38'0 0.0
2017-Jul-15 04:29N 37°56' E 023°38'0 0.0
2017-Jul-15 03:59N 37°56' E 023°38'0 0.0
2017-Jul-15 03:29N 37°56' E 023°38'0 0.0
2017-Jul-15 02:56N 37°56' E 023°38'0 0.0
2017-Jul-15 02:29N 37°56' E 023°38'0 0.7
2017-Jul-15 02:00N 37°56' E 023°37'1 2.3
2017-Jul-15 01:30N 37°55' E 023°37'713.4
2017-Jul-15 01:00N 37°49' E 023°40'917.3
2017-Jul-15 00:30N 37°41' E 023°45'917.0
2017-Jul-15 00:00N 37°33' E 023°49'917.1
2017-Jul-14 23:30N 37°25' E 023°53'188 4.2
2017-Jul-13 02:18N 36°28' E 020°08'  

Dump ship's entire track history